Embden, North Dakota
Current Conditions -  °F | °C
As of 3:53 AM on Friday 28 Nov 2014 (Local Time) from KFAR Reporting Station
Overcast Overcast  
Wind Chill:   Ceiling: 3400
Heat Index: 13°   Visibility: 10mi
Dew Point:   Wind: 9mph
Humidity: 74%   Direction: 160°SSE
Pressure: 30.03"   Gusts: NA
Location:  46.8763°N, 97.4084°W
Report Text: KFAR 280953Z 16008KT 10SM SCT013 BKN034 OVC048 M11/M14 A3003 RMK AO2 SNB29E45 SLP190 P0000 T11061144
Loading
Personal Weather Stations






























Interactive Weather Map New forecast layout! Learn more

10-Day Weather Forecast

Advertisements
Track Severe Weather on mobile